Time;durP1;ratioP1;P1;durP2;ratioP2;P2;SDS_P1;SDS_P2;PMS_P1;PMS_P2;Temp;Humidity;BMP_temperature;BMP_pressure;BME280_temperature;BME280_humidity;BME280_pressure;Samples;Min_cycle;Max_cycle;Signal;HPM_P1;HPM_P2
2022/01/25 00:10:37;;;;;;;87.57;45.47;;;5.90;99.90;;;;;;5065599;28;20256;-79
2022/01/25 00:27:08;;;;;;;81.90;42.58;;;5.90;99.90;;;;;;5048071;28;20180;-78
2022/01/25 00:29:49;;;;;;;94.30;45.85;;;5.80;99.90;;;;;;5073941;28;20222;-79
2022/01/25 00:32:17;;;;;;;82.13;42.38;;;5.80;99.90;;;;;;5074390;28;20204;-80
2022/01/25 00:34:44;;;;;;;87.03;44.58;;;5.70;99.90;;;;;;5073896;28;20295;-76
2022/01/25 00:37:13;;;;;;;88.95;44.35;;;5.80;99.90;;;;;;5080594;28;20215;-78
2022/01/25 00:39:41;;;;;;;79.07;41.80;;;5.80;99.90;;;;;;5080247;28;20220;-76
2022/01/25 00:42:08;;;;;;;79.90;42.67;;;5.80;99.90;;;;;;5080442;28;20180;-77
2022/01/25 00:44:38;;;;;;;78.00;44.28;;;5.70;99.90;;;;;;5080601;28;20239;-76
2022/01/25 00:47:07;;;;;;;89.32;45.35;;;5.70;99.90;;;;;;5073678;28;20185;-76
2022/01/25 00:49:37;;;;;;;82.50;45.00;;;5.70;99.90;;;;;;5076294;28;20210;-76
2022/01/25 00:52:19;;;;;;;75.72;43.58;;;5.70;99.90;;;;;;5076129;28;20202;-77
2022/01/25 00:54:50;;;;;;;81.00;42.80;;;5.70;99.90;;;;;;5075648;28;20220;-76
2022/01/25 00:57:17;;;;;;;84.47;45.70;;;5.70;99.90;;;;;;5073665;28;20183;-77
2022/01/25 00:59:44;;;;;;;88.60;45.67;;;5.70;99.90;;;;;;5071729;28;20188;-79
2022/01/25 01:02:15;;;;;;;84.18;43.60;;;5.70;99.90;;;;;;5080166;28;20219;-77
2022/01/25 01:04:42;;;;;;;75.85;43.80;;;5.60;99.90;;;;;;5073964;28;20231;-79
2022/01/25 01:07:12;;;;;;;74.05;41.65;;;5.60;99.90;;;;;;5078569;28;20255;-78
2022/01/25 01:09:42;;;;;;;80.63;44.38;;;5.60;99.90;;;;;;5068581;28;20221;-79
2022/01/25 01:12:17;;;;;;;77.88;42.72;;;5.50;99.90;;;;;;5076213;28;20203;-78
2022/01/25 01:15:06;;;;;;;80.85;43.80;;;5.70;99.90;;;;;;5075195;28;20223;-78
2022/01/25 01:31:28;;;;;;;74.38;41.33;;;5.60;99.90;;;;;;5058818;28;20226;-79
2022/01/25 01:37:08;;;;;;;79.45;40.70;;;5.60;99.90;;;;;;5049485;28;20268;-79
2022/01/25 01:42:53;;;;;;;77.20;41.70;;;5.60;99.90;;;;;;5063083;28;20601;-80
2022/01/25 01:45:33;;;;;;;78.78;44.55;;;5.60;99.90;;;;;;5060041;28;20207;-81
2022/01/25 01:48:07;;;;;;;72.43;42.00;;;5.60;99.90;;;;;;5066853;28;20827;-81
2022/01/25 01:50:36;;;;;;;90.75;46.40;;;5.70;99.90;;;;;;5063988;28;20230;-79
2022/01/25 01:53:04;;;;;;;77.75;42.28;;;5.60;99.90;;;;;;5065899;28;20224;-80
2022/01/25 01:55:32;;;;;;;77.15;43.95;;;5.60;99.90;;;;;;5069109;28;20235;-79
2022/01/25 01:57:59;;;;;;;81.57;45.70;;;5.70;99.90;;;;;;5068422;28;20192;-79
2022/01/25 02:00:32;;;;;;;77.78;42.42;;;5.70;99.90;;;;;;5056748;28;20220;-77
2022/01/25 02:03:00;;;;;;;87.53;44.85;;;5.70;99.90;;;;;;5058265;28;20208;-78
2022/01/25 02:05:28;;;;;;;82.13;44.33;;;5.70;99.90;;;;;;5060110;28;20212;-79
2022/01/25 02:07:55;;;;;;;91.00;46.35;;;5.80;99.90;;;;;;5060606;28;20271;-79
2022/01/25 02:10:22;;;;;;;91.13;46.90;;;5.60;99.90;;;;;;5066474;28;20685;-77
2022/01/25 02:12:51;;;;;;;74.47;44.67;;;5.60;99.90;;;;;;5065337;28;20707;-79
2022/01/25 02:15:18;;;;;;;77.18;41.08;;;5.60;99.90;;;;;;5060134;28;20220;-77
2022/01/25 02:22:24;;;;;;;76.15;44.10;;;5.50;99.90;;;;;;5063678;28;20207;-80
2022/01/25 02:23:34;;;;;;;95.82;46.00;;;5.50;99.90;;;;;;5062735;28;20234;-78
2022/01/25 02:26:03;;;;;;;86.25;47.08;;;5.50;99.90;;;;;;5058317;28;20204;-79
2022/01/25 02:28:32;;;;;;;81.47;45.30;;;5.50;99.90;;;;;;5066562;28;20200;-80
2022/01/25 02:30:59;;;;;;;77.13;44.42;;;5.50;99.90;;;;;;5065466;28;20264;-79
2022/01/25 02:33:27;;;;;;;88.93;45.80;;;5.60;99.90;;;;;;5057277;28;20246;-78
2022/01/25 02:35:58;;;;;;;89.75;47.22;;;5.60;99.90;;;;;;5071663;28;20208;-80
2022/01/25 02:38:32;;;;;;;86.78;44.78;;;5.60;99.90;;;;;;5061055;28;20228;-78
2022/01/25 02:40:59;;;;;;;76.38;42.72;;;5.70;99.90;;;;;;5051928;28;20263;-78
2022/01/25 02:43:28;;;;;;;90.90;46.33;;;5.60;99.90;;;;;;5067890;28;20311;-78
2022/01/25 02:46:18;;;;;;;79.00;44.40;;;5.50;99.90;;;;;;5068127;28;20265;-78
2022/01/25 02:48:50;;;;;;;77.53;42.42;;;5.40;99.90;;;;;;5055499;28;20215;-78
2022/01/25 02:51:19;;;;;;;82.85;46.67;;;5.60;99.90;;;;;;5058266;28;20224;-80
2022/01/25 02:53:46;;;;;;;83.72;44.08;;;5.50;99.90;;;;;;5065910;28;20223;-79
2022/01/25 02:56:15;;;;;;;83.70;47.20;;;5.50;99.90;;;;;;5071482;28;20286;-80
2022/01/25 02:58:42;;;;;;;88.38;43.63;;;5.50;99.90;;;;;;5070618;28;20228;-80
2022/01/25 03:01:09;;;;;;;94.57;47.50;;;5.50;99.90;;;;;;5067271;28;20200;-82
2022/01/25 03:03:36;;;;;;;88.10;43.80;;;5.60;99.90;;;;;;5060256;28;20216;-81
2022/01/25 03:06:03;;;;;;;90.30;44.83;;;5.50;99.90;;;;;;5057330;28;20222;-79
2022/01/25 03:08:31;;;;;;;84.07;46.88;;;5.50;99.90;;;;;;5067739;28;20232;-80
2022/01/25 03:10:59;;;;;;;88.30;44.50;;;5.60;99.90;;;;;;5053985;28;20728;-79
2022/01/25 03:13:31;;;;;;;88.03;45.72;;;5.60;99.90;;;;;;5060287;28;20230;-79
2022/01/25 03:16:04;;;;;;;84.78;43.05;;;5.60;99.90;;;;;;5060049;28;20208;-80
2022/01/25 03:18:44;;;;;;;89.97;47.13;;;5.60;99.90;;;;;;5054824;28;20209;-79
2022/01/25 03:24:01;;;;;;;94.53;48.60;;;5.40;99.90;;;;;;5064260;28;20242;-78
2022/01/25 03:26:29;;;;;;;77.47;41.40;;;5.60;99.90;;;;;;5067654;28;20259;-78
2022/01/25 03:28:57;;;;;;;100.60;52.20;;;5.50;99.90;;;;;;5049299;28;20207;-79
2022/01/25 03:31:26;;;;;;;92.78;48.92;;;5.50;99.90;;;;;;5065219;28;20223;-78
2022/01/25 03:33:53;;;;;;;85.32;42.45;;;5.60;99.90;;;;;;5066466;28;20791;-80
2022/01/25 03:36:20;;;;;;;95.65;47.33;;;5.50;99.90;;;;;;5066950;28;20286;-81
2022/01/25 03:38:48;;;;;;;97.55;50.40;;;5.40;99.90;;;;;;5065549;28;20204;-81
2022/01/25 03:41:18;;;;;;;99.85;49.83;;;5.60;99.90;;;;;;5065514;28;20215;-80
2022/01/25 03:43:51;;;;;;;96.15;48.75;;;5.50;99.90;;;;;;5065734;28;20222;-79
2022/01/25 03:46:27;;;;;;;96.05;49.40;;;5.50;99.90;;;;;;5060494;28;20246;-78
2022/01/25 03:51:41;;;;;;;90.95;45.92;;;5.50;99.90;;;;;;5067524;28;20225;-80
2022/01/25 03:54:09;;;;;;;98.30;48.80;;;5.50;99.90;;;;;;5066061;28;20645;-80
2022/01/25 03:56:39;;;;;;;89.10;45.78;;;5.40;99.90;;;;;;5062218;28;20276;-81
2022/01/25 03:59:06;;;;;;;81.70;42.60;;;5.50;99.90;;;;;;5057899;28;20226;-79
2022/01/25 04:01:36;;;;;;;93.07;46.80;;;5.50;99.90;;;;;;5070457;28;20238;-80
2022/01/25 04:04:05;;;;;;;92.32;46.83;;;5.50;99.90;;;;;;5069994;28;20341;-80
2022/01/25 04:06:33;;;;;;;97.63;45.17;;;5.50;99.90;;;;;;5069064;28;20215;-80
2022/01/25 04:09:02;;;;;;;88.60;46.83;;;5.40;99.90;;;;;;5064907;28;20215;-79
2022/01/25 04:11:29;;;;;;;94.10;45.58;;;5.40;99.90;;;;;;5066917;28;20576;-80
2022/01/25 04:13:58;;;;;;;89.43;43.83;;;5.60;99.90;;;;;;5060023;28;20310;-78
2022/01/25 04:16:31;;;;;;;94.57;46.35;;;5.60;99.90;;;;;;5070001;28;20211;-77
2022/01/25 04:19:07;;;;;;;87.63;46.78;;;5.40;99.90;;;;;;5061937;28;20204;-80
2022/01/25 04:24:40;;;;;;;95.63;48.28;;;5.40;99.90;;;;;;5056674;28;20234;-80
2022/01/25 04:25:02;;;;;;;102.40;47.20;;;5.60;99.90;;;;;;5067849;28;20246;-80
2022/01/25 04:27:29;;;;;;;92.95;44.85;;;5.50;99.90;;;;;;5059396;28;20204;-79
2022/01/25 04:29:58;;;;;;;85.90;45.28;;;5.50;99.90;;;;;;5068716;28;20268;-78
2022/01/25 04:32:33;;;;;;;86.35;47.13;;;5.50;99.90;;;;;;5054799;28;20211;-79
2022/01/25 04:35:13;;;;;;;87.00;43.83;;;5.50;99.90;;;;;;5067411;28;20717;-80
2022/01/25 04:48:57;;;;;;;91.93;47.08;;;5.60;99.90;;;;;;5061046;28;20227;-79
2022/01/25 04:51:41;;;;;;;80.50;43.33;;;5.60;99.90;;;;;;5060449;28;20201;-77
2022/01/25 04:54:15;;;;;;;84.75;46.95;;;5.60;99.90;;;;;;5070699;28;20235;-78
2022/01/25 04:56:54;;;;;;;84.43;43.20;;;5.60;99.90;;;;;;5067861;28;20187;-78
2022/01/25 04:59:29;;;;;;;83.10;41.92;;;5.60;99.90;;;;;;5071372;28;20219;-79
2022/01/25 05:02:05;;;;;;;88.88;44.03;;;5.60;99.90;;;;;;5075539;28;20207;-77
2022/01/25 05:04:40;;;;;;;90.28;43.47;;;5.80;99.90;;;;;;5068379;28;20292;-76
2022/01/25 05:07:19;;;;;;;94.28;47.13;;;5.70;99.90;;;;;;5074905;28;20204;-79
2022/01/25 05:09:51;;;;;;;77.93;42.83;;;5.70;99.90;;;;;;5079604;28;20231;-77
2022/01/25 05:12:18;;;;;;;82.45;46.25;;;5.70;99.90;;;;;;5077647;28;20234;-79
2022/01/25 05:14:58;;;;;;;89.47;45.80;;;5.70;99.90;;;;;;5067805;28;20216;-79
2022/01/25 05:17:35;;;;;;;93.28;45.00;;;5.70;99.90;;;;;;5070402;28;20218;-78
2022/01/25 05:22:42;;;;;;;85.90;42.55;;;5.80;99.90;;;;;;5068605;28;20218;-80
2022/01/25 05:25:09;;;;;;;82.03;45.80;;;5.80;99.90;;;;;;5068937;28;20196;-79
2022/01/25 05:27:36;;;;;;;84.93;43.67;;;5.70;99.90;;;;;;5066766;28;20276;-80
2022/01/25 05:30:04;;;;;;;82.18;43.03;;;5.70;99.90;;;;;;5057520;28;20269;-80
2022/01/25 05:32:34;;;;;;;79.85;41.78;;;5.70;99.90;;;;;;5057684;28;20211;-80
2022/01/25 05:35:01;;;;;;;81.82;46.03;;;5.70;99.90;;;;;;5057316;28;20307;-80
2022/01/25 05:37:28;;;;;;;86.55;41.22;;;5.90;99.90;;;;;;5067304;28;20275;-81
2022/01/25 05:39:55;;;;;;;90.10;43.20;;;5.70;99.90;;;;;;5062000;28;20213;-80
2022/01/25 05:42:43;;;;;;;72.95;40.53;;;5.80;99.90;;;;;;5056824;28;20235;-79
2022/01/25 05:45:26;;;;;;;81.07;41.53;;;5.80;99.90;;;;;;5061204;28;20645;-81
2022/01/25 05:47:54;;;;;;;78.80;40.25;;;5.90;99.90;;;;;;5052184;28;20202;-80
2022/01/25 05:50:21;;;;;;;80.90;42.70;;;5.90;99.90;;;;;;5060563;28;20191;-77
2022/01/25 05:52:48;;;;;;;91.47;45.38;;;5.90;99.90;;;;;;5069675;28;20188;-81
2022/01/25 05:55:15;;;;;;;78.93;40.28;;;5.80;99.90;;;;;;5074015;28;20239;-77
2022/01/25 05:57:42;;;;;;;89.80;44.10;;;5.90;99.90;;;;;;5074440;28;20191;-78
2022/01/25 06:00:10;;;;;;;78.22;43.40;;;6.00;99.90;;;;;;5072427;28;20193;-78
2022/01/25 06:02:37;;;;;;;88.43;42.35;;;6.00;99.90;;;;;;5076171;28;20235;-77
2022/01/25 06:05:07;;;;;;;79.70;44.92;;;6.10;99.90;;;;;;5075598;28;21299;-77
2022/01/25 06:07:34;;;;;;;81.05;39.50;;;6.00;99.90;;;;;;5065536;28;20217;-76
2022/01/25 06:10:02;;;;;;;71.50;40.00;;;5.90;99.90;;;;;;5065467;28;20199;-77
2022/01/25 06:12:29;;;;;;;83.28;43.38;;;5.80;99.90;;;;;;5075309;28;20227;-77
2022/01/25 06:14:56;;;;;;;79.85;44.58;;;5.90;99.90;;;;;;5064811;28;20225;-78
2022/01/25 06:17:23;;;;;;;79.03;40.97;;;6.00;99.90;;;;;;5068380;28;20273;-79
2022/01/25 06:19:50;;;;;;;82.72;41.95;;;6.00;99.90;;;;;;5065043;28;20228;-79
2022/01/25 06:22:18;;;;;;;80.85;40.70;;;6.00;99.90;;;;;;5050853;28;20733;-80
2022/01/25 06:24:45;;;;;;;74.47;40.83;;;6.10;99.90;;;;;;5059291;28;20277;-79
2022/01/25 06:27:12;;;;;;;82.03;40.03;;;5.90;99.90;;;;;;5069035;28;20240;-82
2022/01/25 06:29:38;;;;;;;74.80;41.35;;;5.80;99.90;;;;;;5060170;28;20271;-79
2022/01/25 06:32:06;;;;;;;77.38;41.95;;;5.70;99.90;;;;;;5070058;28;20640;-80
2022/01/25 06:34:33;;;;;;;82.55;40.97;;;5.70;99.90;;;;;;5069778;28;20223;-79
2022/01/25 06:37:00;;;;;;;86.38;43.05;;;5.60;99.90;;;;;;5065766;28;20196;-82
2022/01/25 06:39:28;;;;;;;81.90;41.67;;;5.60;99.90;;;;;;5057564;28;20201;-79
2022/01/25 06:41:55;;;;;;;70.50;38.65;;;5.60;99.90;;;;;;5067787;28;20235;-81
2022/01/25 06:44:22;;;;;;;72.90;37.53;;;5.70;99.90;;;;;;5068215;28;20274;-81
2022/01/25 06:46:49;;;;;;;74.50;40.95;;;5.70;99.90;;;;;;5057175;28;20237;-82
2022/01/25 06:49:17;;;;;;;83.78;40.17;;;5.70;99.90;;;;;;5059741;28;20197;-82
2022/01/25 06:51:44;;;;;;;70.20;36.53;;;5.70;99.90;;;;;;5059244;28;20210;-82
2022/01/25 06:54:11;;;;;;;78.97;41.63;;;5.70;99.90;;;;;;5055080;28;20228;-82
2022/01/25 06:56:39;;;;;;;79.50;43.28;;;5.80;99.90;;;;;;5056671;28;20306;-82
2022/01/25 06:59:06;;;;;;;80.30;38.28;;;5.90;99.90;;;;;;5054787;28;20647;-80
2022/01/25 07:01:33;;;;;;;77.03;39.50;;;5.90;99.90;;;;;;5052623;28;20226;-82
2022/01/25 07:04:00;;;;;;;79.13;38.85;;;5.90;99.90;;;;;;5064276;28;20255;-80
2022/01/25 07:06:27;;;;;;;81.25;41.78;;;5.60;99.90;;;;;;5055783;28;20232;-81
2022/01/25 07:08:55;;;;;;;77.15;39.60;;;5.90;99.90;;;;;;5067193;28;20200;-81
2022/01/25 07:11:22;;;;;;;90.18;43.08;;;5.70;99.90;;;;;;5059412;28;20250;-81
2022/01/25 07:13:50;;;;;;;74.60;38.40;;;5.60;99.90;;;;;;5068707;28;20283;-82
2022/01/25 07:16:18;;;;;;;79.07;38.65;;;5.70;99.90;;;;;;5064661;28;20222;-80
2022/01/25 07:18:45;;;;;;;86.50;43.13;;;5.60;99.90;;;;;;5053337;28;20228;-82
2022/01/25 07:21:12;;;;;;;78.18;40.80;;;5.60;99.90;;;;;;5050296;28;20207;-82
2022/01/25 07:23:39;;;;;;;78.15;40.63;;;5.60;99.90;;;;;;5060940;28;20692;-84
2022/01/25 07:26:12;;;;;;;73.82;37.40;;;5.70;99.90;;;;;;5057755;28;20259;-82
2022/01/25 07:28:39;;;;;;;69.63;37.83;;;5.70;99.90;;;;;;5055476;28;20204;-82
2022/01/25 07:31:07;;;;;;;76.22;40.15;;;5.90;99.90;;;;;;5054494;28;20215;-78
2022/01/25 07:33:34;;;;;;;77.53;37.53;;;5.70;99.90;;;;;;5055374;28;20260;-80
2022/01/25 07:36:01;;;;;;;77.38;38.92;;;5.70;99.90;;;;;;5057344;28;20271;-81
2022/01/25 07:38:28;;;;;;;82.30;39.75;;;5.90;99.90;;;;;;5059365;28;20203;-80
2022/01/25 07:40:55;;;;;;;73.82;40.75;;;5.80;99.90;;;;;;5057361;28;20207;-81
2022/01/25 07:43:22;;;;;;;87.50;39.53;;;5.70;99.90;;;;;;5062912;28;20281;-80
2022/01/25 07:45:52;;;;;;;82.53;38.63;;;5.70;99.90;;;;;;5068088;28;20288;-82
2022/01/25 07:48:21;;;;;;;72.72;38.97;;;5.70;99.90;;;;;;5058909;28;20264;-81
2022/01/25 07:50:49;;;;;;;79.60;38.72;;;5.70;99.90;;;;;;5060268;28;20228;-82
2022/01/25 07:53:16;;;;;;;75.95;36.42;;;5.70;99.90;;;;;;5068400;28;20262;-81
2022/01/25 07:55:43;;;;;;;79.35;38.08;;;5.70;99.90;;;;;;5064811;28;20213;-80
2022/01/25 07:58:09;;;;;;;94.97;36.80;;;5.70;99.90;;;;;;5055500;28;20273;-78
2022/01/25 08:00:36;;;;;;;73.43;36.65;;;5.70;99.90;;;;;;5064534;28;20211;-78
2022/01/25 08:03:03;;;;;;;72.43;37.95;;;5.70;99.90;;;;;;5057343;28;20235;-79
2022/01/25 08:05:32;;;;;;;66.72;38.17;;;5.80;99.90;;;;;;5054776;28;20201;-79
2022/01/25 08:08:00;;;;;;;77.15;38.97;;;5.80;99.90;;;;;;5054707;28;20208;-79
2022/01/25 08:10:27;;;;;;;70.28;36.83;;;5.80;99.90;;;;;;5056460;28;20225;-81
2022/01/25 08:12:54;;;;;;;74.55;39.15;;;6.00;99.90;;;;;;5062740;28;20242;-78
2022/01/25 08:15:24;;;;;;;68.70;36.58;;;6.00;99.90;;;;;;5062326;28;20282;-78
2022/01/25 08:17:51;;;;;;;68.75;37.88;;;6.10;99.90;;;;;;5065326;28;20265;-79
2022/01/25 08:20:18;;;;;;;66.60;37.90;;;6.20;99.90;;;;;;5056693;28;20233;-80
2022/01/25 08:22:46;;;;;;;68.93;35.83;;;6.20;99.90;;;;;;5064999;28;20219;-79
2022/01/25 08:25:13;;;;;;;61.78;33.70;;;6.10;99.90;;;;;;5064766;28;20600;-80
2022/01/25 08:27:39;;;;;;;69.38;36.65;;;6.10;99.90;;;;;;5057656;28;20265;-78
2022/01/25 08:30:07;;;;;;;69.65;37.03;;;6.10;99.90;;;;;;5060235;28;20260;-81
2022/01/25 08:32:34;;;;;;;65.00;34.47;;;6.20;99.90;;;;;;5052980;28;20682;-81
2022/01/25 08:35:01;;;;;;;66.82;34.83;;;6.40;99.90;;;;;;5043710;28;20233;-81
2022/01/25 08:37:28;;;;;;;62.42;34.13;;;6.40;99.90;;;;;;5049123;28;20217;-80
2022/01/25 08:39:57;;;;;;;60.13;33.53;;;6.90;99.90;;;;;;5051244;28;20636;-78
2022/01/25 08:42:24;;;;;;;54.90;30.50;;;6.90;99.90;;;;;;5054788;28;20217;-79
2022/01/25 08:44:51;;;;;;;56.00;34.38;;;7.10;99.90;;;;;;5057967;28;20220;-79
2022/01/25 08:47:18;;;;;;;56.67;31.42;;;7.10;99.90;;;;;;5058356;28;20673;-78
2022/01/25 08:49:46;;;;;;;64.07;36.47;;;7.40;99.90;;;;;;5063429;28;20210;-79
2022/01/25 08:52:12;;;;;;;59.67;33.83;;;7.20;99.90;;;;;;5051604;28;20210;-79
2022/01/25 08:54:39;;;;;;;64.70;30.60;;;7.20;99.90;;;;;;5058710;28;20238;-79
2022/01/25 08:57:08;;;;;;;58.00;30.70;;;7.20;99.90;;;;;;5062562;28;20230;-78
2022/01/25 08:59:35;;;;;;;52.20;30.17;;;7.10;99.90;;;;;;5067608;28;20237;-79
2022/01/25 09:02:02;;;;;;;56.55;30.27;;;7.30;99.90;;;;;;5058693;28;20229;-77
2022/01/25 09:04:29;;;;;;;56.47;33.25;;;7.40;99.90;;;;;;5052108;28;20290;-79
2022/01/25 09:06:55;;;;;;;61.90;30.55;;;7.30;99.90;;;;;;5069026;28;20267;-80
2022/01/25 09:09:23;;;;;;;53.60;30.35;;;7.30;99.90;;;;;;5055993;28;20206;-78
2022/01/25 09:11:50;;;;;;;55.50;29.50;;;7.50;99.90;;;;;;5062175;28;20289;-79
2022/01/25 09:14:18;;;;;;;57.80;30.20;;;7.60;99.90;;;;;;5060279;28;20257;-78
2022/01/25 09:16:45;;;;;;;63.03;31.90;;;8.00;99.90;;;;;;5064965;28;20252;-81
2022/01/25 09:19:12;;;;;;;62.80;32.55;;;7.90;99.90;;;;;;5056379;28;20199;-78
2022/01/25 09:21:38;;;;;;;64.35;34.42;;;7.80;99.90;;;;;;5056954;28;20238;-77
2022/01/25 09:24:06;;;;;;;51.60;28.45;;;7.70;99.90;;;;;;5069787;28;20286;-77
2022/01/25 09:26:33;;;;;;;62.85;32.75;;;7.90;99.90;;;;;;5070655;28;20192;-78
2022/01/25 09:29:00;;;;;;;62.13;32.00;;;7.90;99.90;;;;;;5078501;28;20208;-79
2022/01/25 09:31:29;;;;;;;55.80;30.65;;;7.90;99.90;;;;;;5076725;28;20217;-79
2022/01/25 09:33:57;;;;;;;59.70;31.95;;;7.90;99.90;;;;;;5069864;28;20214;-79
2022/01/25 09:36:24;;;;;;;59.25;32.60;;;7.70;99.90;;;;;;5063681;28;20219;-77
2022/01/25 09:38:52;;;;;;;58.38;33.15;;;7.60;99.90;;;;;;5065558;28;20621;-78
2022/01/25 09:41:19;;;;;;;55.63;32.85;;;7.40;99.90;;;;;;5065440;28;20613;-79
2022/01/25 09:43:46;;;;;;;57.20;33.83;;;7.50;99.90;;;;;;5059894;28;20235;-78
2022/01/25 09:46:13;;;;;;;56.55;30.30;;;7.50;99.90;;;;;;5051277;28;20259;-79
2022/01/25 09:48:42;;;;;;;57.00;31.17;;;7.70;99.90;;;;;;5050570;28;20286;-79
2022/01/25 09:51:11;;;;;;;57.85;30.63;;;7.40;99.90;;;;;;5055385;28;20263;-80
2022/01/25 09:53:39;;;;;;;56.70;29.98;;;7.20;99.90;;;;;;5060725;28;20910;-80
2022/01/25 09:56:09;;;;;;;57.65;32.40;;;7.20;99.90;;;;;;5061269;28;20305;-81
2022/01/25 09:58:37;;;;;;;53.08;30.25;;;7.10;99.90;;;;;;5070360;28;20269;-81
2022/01/25 10:01:05;;;;;;;54.58;30.00;;;7.20;99.90;;;;;;5067490;28;20214;-81
2022/01/25 10:03:37;;;;;;;54.13;29.17;;;7.20;99.90;;;;;;5060434;28;20259;-80
2022/01/25 10:06:12;;;;;;;47.55;26.20;;;7.10;99.90;;;;;;5070459;28;20212;-82
2022/01/25 10:08:39;;;;;;;56.42;30.23;;;7.10;99.90;;;;;;5064745;28;20214;-81
2022/01/25 10:11:08;;;;;;;56.88;29.67;;;7.00;99.90;;;;;;5060273;28;20230;-82
2022/01/25 10:13:36;;;;;;;54.45;33.10;;;7.20;99.90;;;;;;5057876;28;20717;-81
2022/01/25 10:16:07;;;;;;;54.80;28.98;;;7.20;99.90;;;;;;5062819;28;20282;-81
2022/01/25 10:18:42;;;;;;;57.80;28.67;;;7.00;99.90;;;;;;5066709;28;20238;-83
2022/01/25 10:21:16;;;;;;;53.85;30.80;;;7.10;99.90;;;;;;5054677;28;20677;-81
2022/01/25 10:24:00;;;;;;;61.58;29.73;;;7.30;99.90;;;;;;5054002;28;20288;-80
2022/01/25 10:26:27;;;;;;;42.63;24.65;;;7.50;99.90;;;;;;5054730;28;20613;-79
2022/01/25 10:28:54;;;;;;;47.20;28.05;;;7.90;99.90;;;;;;5050343;28;20200;-79
2022/01/25 10:31:21;;;;;;;50.10;27.85;;;8.00;99.90;;;;;;5061890;28;20199;-80
2022/01/25 10:33:52;;;;;;;51.38;28.25;;;8.10;99.90;;;;;;5052942;28;20315;-80
2022/01/25 10:36:23;;;;;;;55.85;29.95;;;8.10;99.90;;;;;;5054182;28;20624;-79
2022/01/25 10:38:53;;;;;;;49.67;27.20;;;7.80;99.90;;;;;;5051569;28;20210;-80
2022/01/25 10:41:22;;;;;;;79.47;29.70;;;7.70;99.90;;;;;;5065131;28;20270;-82
2022/01/25 10:43:51;;;;;;;59.17;28.70;;;7.50;99.90;;;;;;5068463;28;20232;-80
2022/01/25 10:46:23;;;;;;;48.35;27.95;;;7.50;99.90;;;;;;5058528;28;20202;-80
2022/01/25 10:48:52;;;;;;;54.47;28.23;;;7.40;99.90;;;;;;5055974;28;20616;-81
2022/01/25 10:51:23;;;;;;;65.70;32.00;;;7.30;99.90;;;;;;5058035;28;20202;-80
2022/01/25 10:54:07;;;;;;;48.53;28.05;;;7.40;99.90;;;;;;5056775;28;20217;-80
2022/01/25 10:56:40;;;;;;;56.35;30.08;;;7.50;99.90;;;;;;5067257;28;20222;-80
2022/01/25 10:59:08;;;;;;;53.97;28.33;;;7.40;99.90;;;;;;5069592;28;20203;-79
2022/01/25 11:01:37;;;;;;;59.38;32.47;;;7.50;99.90;;;;;;5065687;28;20246;-79
2022/01/25 11:04:06;;;;;;;56.33;29.02;;;7.50;99.90;;;;;;5062930;28;20251;-79
2022/01/25 11:06:35;;;;;;;51.00;28.98;;;7.60;99.90;;;;;;5063929;28;20270;-79
2022/01/25 11:09:05;;;;;;;54.05;28.83;;;7.80;99.90;;;;;;5057177;28;20282;-80
2022/01/25 11:11:37;;;;;;;60.55;31.13;;;7.80;99.90;;;;;;5059493;28;20256;-79
2022/01/25 11:16:51;;;;;;;51.90;29.42;;;7.70;99.90;;;;;;5063882;28;20233;-79
2022/01/25 11:19:19;;;;;;;44.17;27.48;;;7.70;99.90;;;;;;5072660;28;20576;-80
2022/01/25 11:21:49;;;;;;;54.47;29.63;;;7.50;99.90;;;;;;5054977;28;20231;-78
2022/01/25 11:24:18;;;;;;;57.28;31.27;;;7.30;99.90;;;;;;5056992;28;20230;-81
2022/01/25 11:26:46;;;;;;;48.72;28.77;;;7.20;99.90;;;;;;5056957;28;20215;-81
2022/01/25 11:29:14;;;;;;;51.10;28.13;;;7.30;99.90;;;;;;5057386;28;20252;-80
2022/01/25 11:31:43;;;;;;;51.17;27.45;;;7.30;99.90;;;;;;5056951;28;20225;-80
2022/01/25 11:34:12;;;;;;;53.97;28.67;;;7.20;99.90;;;;;;5057106;28;20229;-81
2022/01/25 11:36:51;;;;;;;47.70;26.98;;;7.20;99.90;;;;;;5058477;28;20261;-78
2022/01/25 11:39:23;;;;;;;58.63;31.08;;;7.10;99.90;;;;;;5076625;28;20250;-79
2022/01/25 11:41:50;;;;;;;55.78;28.75;;;7.10;99.90;;;;;;5068900;28;20229;-80
2022/01/25 11:44:21;;;;;;;52.40;27.75;;;7.00;99.90;;;;;;5076800;28;20214;-82
2022/01/25 11:46:50;;;;;;;53.97;28.85;;;7.20;99.90;;;;;;5073114;28;20266;-80
2022/01/25 11:49:19;;;;;;;53.08;30.50;;;7.30;99.90;;;;;;5055617;28;20260;-80
2022/01/25 11:51:47;;;;;;;44.78;26.77;;;7.50;99.90;;;;;;5060673;28;20298;-80
2022/01/25 11:54:14;;;;;;;50.55;28.77;;;7.80;99.90;;;;;;5051816;28;20250;-81
2022/01/25 11:56:42;;;;;;;52.50;27.95;;;8.10;99.90;;;;;;5063993;28;20219;-79
2022/01/25 11:59:15;;;;;;;48.20;28.13;;;8.10;99.90;;;;;;5060646;28;20289;-80
2022/01/25 12:01:42;;;;;;;44.42;25.33;;;8.10;99.90;;;;;;5065249;28;20197;-81
2022/01/25 12:04:12;;;;;;;48.22;26.95;;;7.80;99.90;;;;;;5062340;28;20223;-78
2022/01/25 12:06:44;;;;;;;45.17;24.88;;;7.80;99.90;;;;;;5050573;28;20204;-80
2022/01/25 12:09:17;;;;;;;48.75;26.60;;;7.70;99.90;;;;;;5056231;28;20200;-80
2022/01/25 12:11:49;;;;;;;48.08;26.70;;;7.80;99.90;;;;;;5059604;28;20221;-79
2022/01/25 12:14:21;;;;;;;45.63;25.45;;;7.50;99.90;;;;;;5057116;28;20227;-82
2022/01/25 12:16:50;;;;;;;52.83;27.27;;;7.70;99.90;;;;;;5060555;28;20215;-80
2022/01/25 12:19:19;;;;;;;41.55;23.88;;;7.70;99.90;;;;;;5058802;28;20305;-83
2022/01/25 12:22:01;;;;;;;52.60;26.83;;;7.60;99.90;;;;;;5066253;28;20241;-81
2022/01/25 12:24:34;;;;;;;48.72;26.17;;;7.60;99.90;;;;;;5057714;28;20318;-81
2022/01/25 12:27:08;;;;;;;45.47;23.42;;;7.40;99.90;;;;;;5068398;28;20251;-80
2022/01/25 12:29:40;;;;;;;43.03;23.55;;;7.30;99.90;;;;;;5049463;28;20596;-81
2022/01/25 12:32:23;;;;;;;45.85;24.40;;;7.30;99.90;;;;;;5059497;28;20304;-80
2022/01/25 12:35:18;;;;;;;48.00;24.58;;;7.30;99.90;;;;;;5065919;28;20272;-78
2022/01/25 12:38:02;;;;;;;46.25;23.80;;;7.20;99.90;;;;;;5057533;28;20253;-79
2022/01/25 12:40:48;;;;;;;46.05;24.30;;;7.40;99.90;;;;;;5068992;28;20259;-80
2022/01/25 12:43:20;;;;;;;44.72;25.90;;;7.50;99.90;;;;;;5061480;28;20249;-81
2022/01/25 12:45:51;;;;;;;43.60;22.58;;;7.80;99.90;;;;;;5054156;28;20213;-81
2022/01/25 12:48:20;;;;;;;39.60;22.50;;;7.90;99.90;;;;;;5070915;28;20258;-79
2022/01/25 12:50:49;;;;;;;44.80;25.08;;;8.20;99.90;;;;;;5054024;28;20230;-80
2022/01/25 12:53:19;;;;;;;42.25;23.05;;;8.50;99.90;;;;;;5055380;28;20279;-81
2022/01/25 12:55:48;;;;;;;45.08;26.75;;;8.50;99.90;;;;;;5068888;28;20214;-79
2022/01/25 12:58:15;;;;;;;42.63;24.38;;;8.50;99.90;;;;;;5064677;28;20230;-80
2022/01/25 13:00:44;;;;;;;38.67;23.02;;;8.30;99.90;;;;;;5063747;28;20231;-81
2022/01/25 13:03:20;;;;;;;47.28;26.65;;;8.20;99.90;;;;;;5066501;28;20291;-81
2022/01/25 13:05:50;;;;;;;44.20;25.35;;;7.80;99.90;;;;;;5066002;28;20263;-81
2022/01/25 13:08:20;;;;;;;42.10;23.70;;;7.60;99.90;;;;;;5060418;28;20902;-79
2022/01/25 13:10:48;;;;;;;39.28;23.83;;;7.30;99.90;;;;;;5058495;28;20233;-81
2022/01/25 13:13:23;;;;;;;46.72;23.40;;;7.20;99.90;;;;;;5060423;28;20227;-81
2022/01/25 13:15:57;;;;;;;45.60;24.73;;;7.10;99.90;;;;;;5056395;28;20208;-81
2022/01/25 13:18:27;;;;;;;40.95;20.90;;;6.90;99.90;;;;;;5064729;28;20266;-81
2022/01/25 13:21:05;;;;;;;45.92;23.08;;;7.00;99.90;;;;;;5058632;28;20205;-80
2022/01/25 13:23:33;;;;;;;48.05;26.48;;;7.20;99.90;;;;;;5065156;28;20286;-81
2022/01/25 13:26:09;;;;;;;43.15;23.00;;;7.20;99.90;;;;;;5066245;28;20211;-81
2022/01/25 13:28:51;;;;;;;52.42;25.17;;;7.10;99.90;;;;;;5059281;28;20214;-81
2022/01/25 13:31:21;;;;;;;45.78;25.90;;;7.20;99.90;;;;;;5051872;28;20200;-80
2022/01/25 13:33:48;;;;;;;44.95;24.13;;;7.00;99.90;;;;;;5054151;28;20242;-80
2022/01/25 13:36:16;;;;;;;42.08;22.65;;;7.00;99.90;;;;;;5067984;28;20226;-80
2022/01/25 13:38:44;;;;;;;46.65;23.38;;;7.00;99.90;;;;;;5064297;28;20288;-81
2022/01/25 13:41:19;;;;;;;48.80;22.85;;;7.10;99.90;;;;;;5059708;28;20247;-81
2022/01/25 13:46:36;;;;;;;43.30;24.80;;;7.20;99.90;;;;;;5057958;28;20246;-80
2022/01/25 13:49:06;;;;;;;40.15;22.30;;;7.10;99.90;;;;;;5070842;28;20236;-80
2022/01/25 13:51:40;;;;;;;39.72;21.60;;;7.00;99.90;;;;;;5057163;28;20290;-80
2022/01/25 13:54:07;;;;;;;55.28;24.85;;;7.00;99.90;;;;;;5058727;28;20245;-81
2022/01/25 13:56:36;;;;;;;47.38;23.30;;;6.90;99.90;;;;;;5059436;28;20287;-80
2022/01/25 13:59:06;;;;;;;45.35;23.40;;;7.10;99.90;;;;;;5067293;28;20196;-81
2022/01/25 14:01:37;;;;;;;44.35;23.33;;;7.00;99.90;;;;;;5059071;28;20207;-81